Time;durP1;ratioP1;P1;durP2;ratioP2;P2;SDS_P1;SDS_P2;PMS_P1;PMS_P2;Temp;Humidity;BMP_temperature;BMP_pressure;BME280_temperature;BME280_humidity;BME280_pressure;Samples;Min_cycle;Max_cycle;Signal;HPM_P1;HPM_P2
2021/10/06 00:00:42;;;;;;;;;;;;;;;10.87;100.00;100358.38;5072014;28;20023;-73
2021/10/06 00:03:08;;;;;;;;;;;;;;;10.88;100.00;100357.38;5071809;28;20416;-73
2021/10/06 00:05:34;;;;;;;;;;;;;;;10.91;100.00;100360.84;5071885;28;20019;-73
2021/10/06 00:08:01;;;;;;;;;;;;;;;10.89;100.00;100356.38;5071711;28;20022;-73
2021/10/06 00:10:27;;;;;;;;;;;;;;;10.86;100.00;100347.66;5071729;28;20020;-69
2021/10/06 00:12:55;;;;;;;;;;;;;;;10.87;100.00;100350.22;5070336;28;20035;-68
2021/10/06 00:15:21;;;;;;;;;;;;;;;10.89;100.00;100356.38;5071662;28;19929;-69
2021/10/06 00:17:47;;;;;;;;;;;;;;;10.93;100.00;100358.81;5071334;28;20359;-68
2021/10/06 00:20:14;;;;;;;;;;;;;;;10.93;100.00;100364.25;5071822;28;19966;-68
2021/10/06 00:22:40;;;;;;;;;;;;;;;10.94;100.00;100358.69;5071625;28;19928;-68
2021/10/06 00:25:07;;;;;;;;;;;;;;;10.95;100.00;100367.72;5071564;28;20023;-69
2021/10/06 00:27:34;;;;;;;;;;;;;;;10.95;100.00;100373.16;5071667;28;20015;-69
2021/10/06 00:30:01;;;;;;;;;;;;;;;10.96;100.00;100361.28;5071569;28;20288;-69
2021/10/06 00:32:28;;;;;;;;;;;;;;;10.95;100.00;100359.56;5071293;28;20015;-68
2021/10/06 00:34:54;;;;;;;;;;;;;;;10.95;100.00;100367.72;5071280;28;19963;-68
2021/10/06 00:37:20;;;;;;;;;;;;;;;10.95;100.00;100365.00;5071204;28;19978;-69
2021/10/06 00:39:46;;;;;;;;;;;;;;;10.95;100.00;100362.28;5071406;28;20011;-68
2021/10/06 00:42:13;;;;;;;;;;;;;;;10.92;100.00;100368.00;5071288;28;20035;-69
2021/10/06 00:44:39;;;;;;;;;;;;;;;10.90;100.00;100373.53;5071550;28;20062;-68
2021/10/06 00:47:11;;;;;;;;;;;;;;;10.85;100.00;100373.94;5071008;28;20358;-68
2021/10/06 00:49:37;;;;;;;;;;;;;;;10.77;100.00;100365.63;5071346;28;19986;-68
2021/10/06 00:52:04;;;;;;;;;;;;;;;10.70;100.00;100372.56;5071017;28;20019;-68
2021/10/06 00:54:30;;;;;;;;;;;;;;;10.62;100.00;100364.25;5071346;28;19979;-69
2021/10/06 00:56:56;;;;;;;;;;;;;;;10.52;100.00;100373.19;5070820;28;20020;-68
2021/10/06 00:59:23;;;;;;;;;;;;;;;10.44;100.00;100373.00;5071313;28;20024;-68
2021/10/06 01:01:49;;;;;;;;;;;;;;;10.39;100.00;100377.94;5070974;28;19931;-69
2021/10/06 01:04:16;;;;;;;;;;;;;;;10.29;100.00;100379.69;5071420;28;20434;-68
2021/10/06 01:06:43;;;;;;;;;;;;;;;10.25;100.00;100380.94;5071127;28;19959;-69
2021/10/06 01:09:09;;;;;;;;;;;;;;;10.18;100.00;100383.31;5071010;28;19935;-68
2021/10/06 01:11:35;;;;;;;;;;;;;;;10.14;100.00;100385.47;5070992;28;20019;-68
2021/10/06 01:14:02;;;;;;;;;;;;;;;10.10;100.00;100386.72;5070863;28;19991;-68
2021/10/06 01:16:28;;;;;;;;;;;;;;;10.07;100.00;100384.25;5071059;28;20023;-68
2021/10/06 01:18:54;;;;;;;;;;;;;;;10.03;100.00;100391.78;5070951;28;19982;-68
2021/10/06 01:21:22;;;;;;;;;;;;;;;10.02;100.00;100390.06;5070869;28;19936;-68
2021/10/06 01:23:50;;;;;;;;;;;;;;;9.98;100.00;100391.31;5073177;28;19924;-68
2021/10/06 01:26:18;;;;;;;;;;;;;;;9.98;100.00;100391.31;5074882;28;19978;-68
2021/10/06 01:28:45;;;;;;;;;;;;;;;9.98;100.00;100391.31;5075082;28;19925;-68
2021/10/06 01:31:11;;;;;;;;;;;;;;;9.96;100.00;100395.16;5074572;28;19928;-68
2021/10/06 01:33:37;;;;;;;;;;;;;;;9.91;100.00;100391.94;5074954;28;20020;-68
2021/10/06 01:36:04;;;;;;;;;;;;;;;9.86;100.00;100387.78;5040258;28;20387;-68
2021/10/06 01:38:32;;;;;;;;;;;;;;;9.86;100.00;100397.75;5074858;28;20007;-68
2021/10/06 01:40:58;;;;;;;;;;;;;;;9.88;100.00;100395.78;5074369;28;19956;-68
2021/10/06 01:43:24;;;;;;;;;;;;;;;9.88;100.00;100396.63;5074299;28;20039;-68
2021/10/06 01:45:50;;;;;;;;;;;;;;;9.85;100.00;100398.75;5074554;28;20022;-68
2021/10/06 01:48:17;;;;;;;;;;;;;;;9.82;100.00;100380.91;5074551;28;19925;-68
2021/10/06 01:50:43;;;;;;;;;;;;;;;9.78;100.00;100378.56;5056294;28;20378;-69
2021/10/06 01:53:10;;;;;;;;;;;;;;;9.76;100.00;100384.09;5074397;28;20058;-68
2021/10/06 01:55:38;;;;;;;;;;;;;;;9.72;100.00;100379.94;5074496;28;19924;-68
2021/10/06 01:58:08;;;;;;;;;;;;;;;9.71;100.00;100389.03;5074266;28;20454;-68
2021/10/06 02:00:35;;;;;;;;;;;;;;;9.72;100.00;100391.63;5074231;28;19925;-67
2021/10/06 02:03:01;;;;;;;;;;;;;;;9.71;100.00;100389.03;5074333;28;19924;-68
2021/10/06 02:05:28;;;;;;;;;;;;;;;9.67;100.00;100393.00;5074383;28;19975;-68
2021/10/06 02:07:54;;;;;;;;;;;;;;;9.64;100.00;100394.13;5073656;28;19924;-68
2021/10/06 02:10:21;;;;;;;;;;;;;;;9.62;100.00;100387.09;5074206;28;19924;-68
2021/10/06 02:12:48;;;;;;;;;;;;;;;9.62;100.00;100392.50;5073956;28;20388;-69
2021/10/06 02:15:15;;;;;;;;;;;;;;;9.61;100.00;100390.81;5056073;28;20391;-69
2021/10/06 02:17:41;;;;;;;;;;;;;;;9.64;100.00;100390.56;5073921;28;19924;-69
2021/10/06 02:20:08;;;;;;;;;;;;;;;9.67;100.00;100391.16;5074171;28;19928;-69
2021/10/06 02:22:34;;;;;;;;;;;;;;;9.68;100.00;100395.56;5073957;28;20015;-68
2021/10/06 02:25:00;;;;;;;;;;;;;;;9.72;100.00;100404.31;5056073;28;19925;-69
2021/10/06 02:27:27;;;;;;;;;;;;;;;9.80;100.00;100403.69;5073512;28;20307;-72
2021/10/06 02:29:54;;;;;;;;;;;;;;;9.83;100.00;100401.56;5055573;28;19962;-73
2021/10/06 02:32:21;;;;;;;;;;;;;;;9.89;100.00;100409.19;5073038;28;20020;-72
2021/10/06 02:34:47;;;;;;;;;;;;;;;9.97;100.00;100416.69;5072632;28;20378;-73
2021/10/06 02:37:13;;;;;;;;;;;;;;;10.09;100.00;100413.94;5073704;28;19946;-72
2021/10/06 02:39:40;;;;;;;;;;;;;;;10.17;100.00;100415.03;5073636;28;19947;-69
2021/10/06 02:42:06;;;;;;;;;;;;;;;10.25;100.00;100418.94;5073480;28;19970;-69
2021/10/06 02:44:33;;;;;;;;;;;;;;;10.33;100.00;100424.59;5073526;28;20018;-69
2021/10/06 02:47:02;;;;;;;;;;;;;;;10.41;100.00;100424.81;5073230;28;20015;-68
2021/10/06 02:49:28;;;;;;;;;;;;;;;10.46;100.00;100425.28;5073598;28;20023;-68
2021/10/06 02:51:55;;;;;;;;;;;;;;;10.48;100.00;100417.88;5073259;28;20390;-68
2021/10/06 02:54:21;;;;;;;;;;;;;;;10.51;100.00;100424.88;5073349;28;20251;-69
2021/10/06 02:56:47;;;;;;;;;;;;;;;10.48;100.00;100423.28;5073310;28;19924;-69
2021/10/06 02:59:13;;;;;;;;;;;;;;;10.48;100.00;100425.16;5073141;28;19925;-69
2021/10/06 03:01:39;;;;;;;;;;;;;;;10.46;100.00;100427.13;5072850;28;20018;-69
2021/10/06 03:04:07;;;;;;;;;;;;;;;10.41;100.00;100432.97;5073126;28;19935;-69
2021/10/06 03:06:33;;;;;;;;;;;;;;;10.36;100.00;100438.75;5073150;28;19925;-68
2021/10/06 03:09:00;;;;;;;;;;;;;;;10.28;100.00;100433.09;5073040;28;20391;-69
2021/10/06 03:11:26;;;;;;;;;;;;;;;10.22;100.00;100441.75;5073172;28;19978;-69
2021/10/06 03:13:52;;;;;;;;;;;;;;;10.17;100.00;100449.44;5073060;28;19935;-68
2021/10/06 03:16:18;;;;;;;;;;;;;;;10.09;100.00;100458.22;5072711;28;20447;-69
2021/10/06 03:18:45;;;;;;;;;;;;;;;10.07;100.00;100449.31;5072844;28;20289;-68
2021/10/06 03:21:12;;;;;;;;;;;;;;;10.05;100.00;100457.59;5072439;28;19928;-69
2021/10/06 03:23:38;;;;;;;;;;;;;;;10.06;100.00;100447.59;5072804;28;19928;-68
2021/10/06 03:26:05;;;;;;;;;;;;;;;10.07;100.00;100460.16;5072506;28;20407;-69
2021/10/06 03:28:31;;;;;;;;;;;;;;;10.06;100.00;100463.88;5072601;28;20023;-68
2021/10/06 03:30:57;;;;;;;;;;;;;;;10.02;100.00;100463.28;5072699;28;20033;-69
2021/10/06 03:33:23;;;;;;;;;;;;;;;10.02;100.00;100466.00;5054385;28;19931;-68
2021/10/06 03:35:50;;;;;;;;;;;;;;;10.02;100.00;100466.00;5071842;28;20476;-69
2021/10/06 03:38:17;;;;;;;;;;;;;;;10.05;100.00;100471.16;5072186;28;20396;-68
2021/10/06 03:40:43;;;;;;;;;;;;;;;10.10;100.00;100469.91;5072427;28;19988;-69
2021/10/06 03:43:10;;;;;;;;;;;;;;;10.16;100.00;100478.38;5072067;28;20570;-68
2021/10/06 03:45:36;;;;;;;;;;;;;;;10.23;100.00;100481.44;5072254;28;20134;-69
2021/10/06 03:48:02;;;;;;;;;;;;;;;10.32;100.00;100487.97;5072035;28;19928;-69
2021/10/06 03:50:29;;;;;;;;;;;;;;;10.41;100.00;100500.78;5054319;28;20326;-69
2021/10/06 03:52:55;;;;;;;;;;;;;;;10.48;100.00;100507.41;5071851;28;20015;-69
2021/10/06 03:55:23;;;;;;;;;;;;;;;10.55;100.00;100508.66;5071942;28;19947;-69
2021/10/06 03:57:49;;;;;;;;;;;;;;;10.62;100.00;100514.41;5071884;28;19936;-69
2021/10/06 04:00:15;;;;;;;;;;;;;;;10.77;100.00;100523.09;5072186;28;20391;-69
2021/10/06 04:02:42;;;;;;;;;;;;;;;10.85;100.00;100525.13;5053891;28;19925;-73
2021/10/06 04:05:09;;;;;;;;;;;;;;;10.91;100.00;100521.91;5073610;28;20398;-73
2021/10/06 04:07:35;;;;;;;;;;;;;;;10.98;100.00;100533.97;5078903;28;19940;-73
2021/10/06 04:10:01;;;;;;;;;;;;;;;11.04;100.00;100538.88;5038460;28;20023;-72
2021/10/06 04:12:29;;;;;;;;;;;;;;;11.11;100.00;100541.91;5084183;28;20229;-73
2021/10/06 04:14:55;;;;;;;;;;;;;;;11.20;100.00;100548.41;5087648;28;20026;-73
2021/10/06 04:17:22;;;;;;;;;;;;;;;11.24;100.00;100547.16;5091891;28;19924;-73
2021/10/06 04:19:48;;;;;;;;;;;;;;;11.26;100.00;100549.72;5060360;28;19925;-73
2021/10/06 04:22:14;;;;;;;;;;;;;;;11.27;100.00;100552.31;5074166;28;19924;-73
2021/10/06 04:24:40;;;;;;;;;;;;;;;11.33;100.00;100561.78;5084633;28;19930;-73
2021/10/06 04:27:07;;;;;;;;;;;;;;;11.35;100.00;100567.94;5091368;28;20388;-73
2021/10/06 04:29:34;;;;;;;;;;;;;;;11.37;100.00;100565.94;5079935;28;19928;-74
2021/10/06 04:32:01;;;;;;;;;;;;;;;11.38;100.00;100574.00;5072109;28;19931;-73
2021/10/06 04:34:27;;;;;;;;;;;;;;;11.41;100.00;100574.69;5091207;28;20015;-73
2021/10/06 04:36:53;;;;;;;;;;;;;;;11.39;100.00;100569.41;5091183;28;19938;-74
2021/10/06 04:39:19;;;;;;;;;;;;;;;11.40;100.00;100571.13;5071716;28;20367;-74
2021/10/06 04:41:46;;;;;;;;;;;;;;;11.38;100.00;100573.13;5082195;28;19977;-74
2021/10/06 04:44:12;;;;;;;;;;;;;;;11.37;100.00;100576.81;5091196;28;19924;-73
2021/10/06 04:46:39;;;;;;;;;;;;;;;11.34;100.00;100568.94;5082667;28;19931;-74
2021/10/06 04:49:06;;;;;;;;;;;;;;;11.31;100.00;100571.94;5079552;28;19990;-75
2021/10/06 04:51:32;;;;;;;;;;;;;;;11.29;100.00;100569.34;5071221;28;19924;-75
2021/10/06 04:53:58;;;;;;;;;;;;;;;11.29;100.00;100582.94;5076105;28;20015;-75
2021/10/06 04:56:24;;;;;;;;;;;;;;;11.27;100.00;100598.50;5073119;28;20310;-75
2021/10/06 04:58:51;;;;;;;;;;;;;;;11.26;100.00;100595.91;5086867;28;19946;-75
2021/10/06 05:01:17;;;;;;;;;;;;;;;11.22;100.00;100601.63;5075013;28;20302;-75
2021/10/06 05:03:45;;;;;;;;;;;;;;;11.22;100.00;100604.34;5090419;28;19932;-74
2021/10/06 05:06:11;;;;;;;;;;;;;;;11.23;100.00;100607.91;5090648;28;19950;-74
2021/10/06 05:08:37;;;;;;;;;;;;;;;11.21;100.00;100616.19;5091187;28;19925;-74
2021/10/06 05:11:04;;;;;;;;;;;;;;;11.20;100.00;100610.91;5085610;28;20040;-74
2021/10/06 05:13:30;;;;;;;;;;;;;;;11.19;100.00;100620.03;5070770;28;19931;-74
2021/10/06 05:15:56;;;;;;;;;;;;;;;11.17;100.00;100622.91;5070597;28;20278;-74
2021/10/06 05:18:23;;;;;;;;;;;;;;;11.17;100.00;100631.03;5056781;28;19924;-74
2021/10/06 05:20:50;;;;;;;;;;;;;;;11.16;100.00;100631.19;5070719;28;19924;-74
2021/10/06 05:23:17;;;;;;;;;;;;;;;11.15;100.00;100627.59;5071897;28;19924;-74
2021/10/06 05:25:43;;;;;;;;;;;;;;;11.13;100.00;100636.84;5071162;28;19928;-74
2021/10/06 05:28:09;;;;;;;;;;;;;;;11.14;100.00;100644.03;5083588;28;19948;-74
2021/10/06 05:30:36;;;;;;;;;;;;;;;11.14;100.00;100655.72;5081404;28;19930;-75
2021/10/06 05:33:02;;;;;;;;;;;;;;;11.16;100.00;100653.75;5089509;28;20027;-75
2021/10/06 05:35:28;;;;;;;;;;;;;;;11.15;100.00;100656.63;5077540;28;19924;-75
2021/10/06 05:37:56;;;;;;;;;;;;;;;11.16;100.00;100661.06;5070414;28;20330;-76
2021/10/06 05:40:22;;;;;;;;;;;;;;;11.15;100.00;100657.47;5060565;28;20326;-74
2021/10/06 05:42:48;;;;;;;;;;;;;;;11.12;100.00;100659.59;5040424;28;19933;-74
2021/10/06 05:45:14;;;;;;;;;;;;;;;11.08;100.00;100659.00;5056204;28;20348;-75
2021/10/06 05:47:41;;;;;;;;;;;;;;;11.04;100.00;100663.81;5056460;28;20400;-74
2021/10/06 05:50:07;;;;;;;;;;;;;;;11.02;100.00;100659.50;5054066;28;20023;-74
2021/10/06 05:52:35;;;;;;;;;;;;;;;10.98;100.00;100671.63;5070351;28;19950;-74
2021/10/06 05:55:02;;;;;;;;;;;;;;;10.93;100.00;100684.72;5070755;28;20031;-74
2021/10/06 05:57:28;;;;;;;;;;;;;;;10.89;100.00;100689.56;5085291;28;19924;-74
2021/10/06 05:59:55;;;;;;;;;;;;;;;10.84;100.00;100692.63;5060481;28;19976;-74
2021/10/06 06:02:21;;;;;;;;;;;;;;;10.79;100.00;100699.44;5075037;28;19924;-74
2021/10/06 06:04:47;;;;;;;;;;;;;;;10.78;100.00;100709.44;5090532;28;20027;-74
2021/10/06 06:07:14;;;;;;;;;;;;;;;10.78;100.00;100709.44;5079928;28;19933;-74
2021/10/06 06:09:40;;;;;;;;;;;;;;;10.81;100.00;100709.19;5052461;28;19925;-74
2021/10/06 06:12:09;;;;;;;;;;;;;;;10.80;100.00;100715.59;5073800;28;19928;-74
2021/10/06 06:14:36;;;;;;;;;;;;;;;10.79;100.00;100724.72;5073745;28;19924;-74
2021/10/06 06:17:02;;;;;;;;;;;;;;;10.77;100.00;100723.13;5085954;28;20047;-74
2021/10/06 06:19:29;;;;;;;;;;;;;;;10.77;100.00;100728.56;5073890;28;19977;-75
2021/10/06 06:21:55;;;;;;;;;;;;;;;10.78;100.00;100724.88;5073190;28;20454;-74
2021/10/06 06:24:21;;;;;;;;;;;;;;;10.79;100.00;100727.44;5089825;28;19924;-75
2021/10/06 06:26:47;;;;;;;;;;;;;;;10.83;100.00;100728.06;5081594;28;19971;-74
2021/10/06 06:29:15;;;;;;;;;;;;;;;10.95;100.00;100731.63;5082128;28;19966;-75
2021/10/06 06:31:41;;;;;;;;;;;;;;;11.01;100.00;100737.41;5093610;28;19924;-74
2021/10/06 06:34:07;;;;;;;;;;;;;;;11.05;100.00;100749.75;5068575;28;20047;-74
2021/10/06 06:36:34;;;;;;;;;;;;;;;11.28;100.00;100744.25;5073322;28;19928;-74
2021/10/06 06:39:00;;;;;;;;;;;;;;;11.66;100.00;100747.41;5090740;28;20018;-74
2021/10/06 06:41:26;;;;;;;;;;;;;;;12.13;100.00;100750.66;5093298;28;19924;-75
2021/10/06 06:43:52;;;;;;;;;;;;;;;12.45;100.00;100746.91;5076839;28;19925;-75
2021/10/06 06:46:20;;;;;;;;;;;;;;;12.52;100.00;100739.94;5073240;28;19928;-75
2021/10/06 06:48:46;;;;;;;;;;;;;;;12.74;100.00;100740.75;5074369;28;20486;-75
2021/10/06 06:51:13;;;;;;;;;;;;;;;13.20;100.00;100744.72;5073027;28;19960;-74
2021/10/06 06:53:39;;;;;;;;;;;;;;;13.78;100.00;100729.41;5082976;28;19964;-75
2021/10/06 06:56:05;;;;;;;;;;;;;;;14.46;100.00;100725.63;5074634;28;19928;-75
2021/10/06 06:58:32;;;;;;;;;;;;;;;15.04;100.00;100723.63;5081818;28;20011;-75
2021/10/06 07:00:58;;;;;;;;;;;;;;;15.51;100.00;100717.06;5065889;28;20459;-73
2021/10/06 07:03:25;;;;;;;;;;;;;;;15.70;100.00;100713.28;5072530;28;20283;-73
2021/10/06 07:05:52;;;;;;;;;;;;;;;16.06;100.00;100711.38;5079225;28;20387;-73
2021/10/06 07:08:18;;;;;;;;;;;;;;;16.18;100.00;100717.47;5092920;28;19924;-73
2021/10/06 07:10:44;;;;;;;;;;;;;;;16.17;100.00;100715.72;5084944;28;20038;-72
2021/10/06 07:13:11;;;;;;;;;;;;;;;16.09;100.00;100712.06;5074191;28;20035;-72
2021/10/06 07:15:37;;;;;;;;;;;;;;;16.23;100.00;100717.84;5054697;28;20023;-72
2021/10/06 07:18:04;;;;;;;;;;;;;;;16.36;100.00;100722.00;5072361;28;19929;-72
2021/10/06 07:20:31;;;;;;;;;;;;;;;16.29;100.00;100726.41;5072404;28;19925;-72
2021/10/06 07:22:58;;;;;;;;;;;;;;;16.35;100.00;100743.03;5074720;28;19931;-72
2021/10/06 07:25:24;;;;;;;;;;;;;;;16.47;100.00;100740.88;5082270;28;19958;-72
2021/10/06 07:27:50;;;;;;;;;;;;;;;16.69;100.00;100753.16;5072393;28;19931;-73
2021/10/06 07:30:16;;;;;;;;;;;;;;;16.69;100.00;100763.28;5072638;28;19925;-72
2021/10/06 07:32:43;;;;;;;;;;;;;;;16.74;100.00;100758.16;5073094;28;19931;-72
2021/10/06 07:35:10;;;;;;;;;;;;;;;16.47;100.00;100753.75;5091266;28;20015;-72
2021/10/06 07:37:37;;;;;;;;;;;;;;;16.78;100.00;100751.31;5071373;28;19973;-72
2021/10/06 07:40:04;;;;;;;;;;;;;;;16.70;100.00;100763.13;5078696;28;20037;-73
2021/10/06 07:42:31;;;;;;;;;;;;;;;16.53;100.00;100762.16;5055553;28;19924;-73
2021/10/06 07:44:59;;;;;;;;;;;;;;;16.97;100.00;100760.31;5071802;28;19924;-73
2021/10/06 07:47:25;;;;;;;;;;;;;;;16.50;100.00;100770.72;5051914;28;19925;-73
2021/10/06 07:49:51;;;;;;;;;;;;;;;16.54;100.00;100773.97;5065113;28;19942;-73
2021/10/06 07:52:18;;;;;;;;;;;;;;;16.36;100.00;100768.56;5091646;28;19924;-73
2021/10/06 07:54:45;;;;;;;;;;;;;;;16.67;100.00;100771.66;5084918;28;20158;-73
2021/10/06 07:57:11;;;;;;;;;;;;;;;16.86;100.00;100781.53;5071660;28;19924;-73
2021/10/06 07:59:38;;;;;;;;;;;;;;;17.07;100.00;100777.50;5072906;28;20019;-73
2021/10/06 08:02:04;;;;;;;;;;;;;;;17.46;100.00;100782.41;5065770;28;19924;-73
2021/10/06 08:04:30;;;;;;;;;;;;;;;17.76;100.00;100788.28;5071429;28;19977;-73
2021/10/06 08:06:56;;;;;;;;;;;;;;;18.17;100.00;100790.19;5071187;28;19924;-72
2021/10/06 08:09:23;;;;;;;;;;;;;;;18.32;100.00;100790.34;5071752;28;19925;-73
2021/10/06 08:11:51;;;;;;;;;;;;;;;18.22;100.00;100777.66;5079028;28;20404;-73
2021/10/06 08:14:17;;;;;;;;;;;;;;;18.05;100.00;100789.69;5071459;28;19931;-73
2021/10/06 08:16:43;;;;;;;;;;;;;;;17.86;100.00;100788.97;5088859;28;19930;-73
2021/10/06 08:19:10;;;;;;;;;;;;;;;17.71;100.00;100793.44;5083159;28;20347;-73
2021/10/06 08:21:36;;;;;;;;;;;;;;;17.77;100.00;100797.38;5071229;28;19925;-73
2021/10/06 08:24:02;;;;;;;;;;;;;;;17.47;100.00;100800.59;5073723;28;19925;-73
2021/10/06 08:26:28;;;;;;;;;;;;;;;17.31;100.00;100798.66;5074361;28;20015;-73
2021/10/06 08:28:56;;;;;;;;;;;;;;;16.68;100.00;100805.41;5091364;28;19928;-73
2021/10/06 08:31:23;;;;;;;;;;;;;;;16.35;100.00;100810.66;5091680;28;20015;-73
2021/10/06 08:33:49;;;;;;;;;;;;;;;16.39;100.00;100814.81;5090379;28;19924;-73
2021/10/06 08:36:16;;;;;;;;;;;;;;;17.18;100.00;100821.09;5091377;28;19924;-68
2021/10/06 08:38:42;;;;;;;;;;;;;;;18.38;100.00;100820.75;5091745;28;20018;-68
2021/10/06 08:41:08;;;;;;;;;;;;;;;18.99;100.00;100824.94;5091465;28;19924;-68
2021/10/06 08:43:36;;;;;;;;;;;;;;;18.87;100.00;100825.28;5091345;28;19928;-73
2021/10/06 08:46:04;;;;;;;;;;;;;;;18.52;100.00;100829.31;5073096;28;19974;-73
2021/10/06 08:48:30;;;;;;;;;;;;;;;18.18;100.00;100827.63;5091421;28;19924;-73
2021/10/06 08:50:56;;;;;;;;;;;;;;;18.60;100.00;100833.94;5090883;28;19924;-73
2021/10/06 08:53:22;;;;;;;;;;;;;;;18.93;100.00;100831.13;5090837;28;20367;-73
2021/10/06 08:55:49;;;;;;;;;;;;;;;19.04;100.00;100842.63;5091248;28;20019;-73
2021/10/06 08:58:15;;;;;;;;;;;;;;;18.83;100.00;100834.91;5090979;28;19928;-73
2021/10/06 09:00:51;;;;;;;;;;;;;;;19.47;100.00;100831.25;5091214;28;19924;-73
2021/10/06 09:03:24;;;;;;;;;;;;;;;20.02;100.00;100829.34;5091014;28;19931;-73
2021/10/06 09:05:59;;;;;;;;;;;;;;;20.71;100.00;100833.03;5090945;28;19924;-73
2021/10/06 09:08:26;;;;;;;;;;;;;;;20.63;100.00;100836.72;5090875;28;19928;-73
2021/10/06 09:10:53;;;;;;;;;;;;;;;20.21;100.00;100836.25;5090661;28;19974;-73
2021/10/06 09:13:24;;;;;;;;;;;;;;;19.17;100.00;100842.03;5091102;28;19924;-74
2021/10/06 09:15:51;;;;;;;;;;;;;;;18.47;100.00;100861.97;5090854;28;20362;-73
2021/10/06 09:18:19;;;;;;;;;;;;;;;17.70;100.00;100858.47;5090992;28;19928;-73
2021/10/06 09:20:47;;;;;;;;;;;;;;;18.16;100.00;100865.41;5090789;28;20011;-73
2021/10/06 09:23:14;;;;;;;;;;;;;;;17.94;100.00;100865.03;5091129;28;19924;-69
2021/10/06 09:25:47;;;;;;;;;;;;;;;17.08;100.00;100866.97;5090923;28;19924;-69
2021/10/06 09:28:18;;;;;;;;;;;;;;;17.21;100.00;100869.25;5070073;28;19982;-73
2021/10/06 09:30:44;;;;;;;;;;;;;;;17.46;100.00;100864.72;5069323;28;19977;-74
2021/10/06 09:33:10;;;;;;;;;;;;;;;17.92;100.00;100886.34;5070181;28;20398;-69
2021/10/06 09:35:37;;;;;;;;;;;;;;;17.65;100.00;100887.41;5070810;28;19924;-68
2021/10/06 09:38:04;;;;;;;;;;;;;;;17.36;100.00;100886.81;5070471;28;19932;-68
2021/10/06 09:40:31;;;;;;;;;;;;;;;17.12;100.00;100892.22;5070502;28;19924;-69
2021/10/06 09:42:59;;;;;;;;;;;;;;;16.29;100.00;100907.16;5070351;28;19955;-69
2021/10/06 09:45:27;;;;;;;;;;;;;;;16.75;100.00;100899.66;5072609;28;20019;-73
2021/10/06 09:48:00;;;;;;;;;;;;;;;16.54;100.00;100900.88;5055806;28;19960;-73
2021/10/06 09:50:27;;;;;;;;;;;;;;;16.96;100.00;100895.72;5074220;28;20015;-73
2021/10/06 09:52:53;;;;;;;;;;;;;;;17.68;100.00;100896.19;5073987;28;19924;-73
2021/10/06 09:55:21;;;;;;;;;;;;;;;18.62;100.00;100892.34;5074542;28;20392;-73
2021/10/06 09:57:47;;;;;;;;;;;;;;;19.38;100.00;100892.88;5073605;28;20371;-73
2021/10/06 10:00:17;;;;;;;;;;;;;;;19.31;100.00;100895.47;5074028;28;19958;-73
2021/10/06 10:02:43;;;;;;;;;;;;;;;18.86;100.00;100895.06;5073970;28;19924;-73
2021/10/06 10:05:10;;;;;;;;;;;;;;;18.05;100.00;100910.53;5073699;28;20365;-73
2021/10/06 10:07:37;;;;;;;;;;;;;;;18.42;100.00;100908.34;5073655;28;19925;-74
2021/10/06 10:10:04;;;;;;;;;;;;;;;19.05;100.00;100920.50;5073859;28;19935;-73
2021/10/06 10:12:31;;;;;;;;;;;;;;;19.76;100.00;100915.03;5073908;28;19930;-73
2021/10/06 10:14:58;;;;;;;;;;;;;;;19.30;100.00;100914.94;5073752;28;20380;-73
2021/10/06 10:17:25;;;;;;;;;;;;;;;18.83;100.00;100931.16;5073719;28;19924;-74
2021/10/06 10:19:53;;;;;;;;;;;;;;;17.82;100.00;100930.38;5073915;28;19924;-73
2021/10/06 10:22:21;;;;;;;;;;;;;;;17.01;100.00;100929.84;5073546;28;20356;-73
2021/10/06 10:24:48;;;;;;;;;;;;;;;17.22;100.00;100921.22;5073535;28;19978;-72
2021/10/06 10:27:15;;;;;;;;;;;;;;;17.86;100.00;100931.75;5073032;28;20398;-73
2021/10/06 10:29:47;;;;;;;;;;;;;;;17.46;100.00;100936.06;5055809;28;20035;-73
2021/10/06 10:32:16;;;;;;;;;;;;;;;17.04;100.00;100936.91;5073091;28;20420;-72
2021/10/06 10:34:57;;;;;;;;;;;;;;;16.75;100.00;100943.50;5055706;28;19925;-68
2021/10/06 10:37:50;;;;;;;;;;;;;;;16.45;100.00;100950.28;5073614;28;19956;-68
2021/10/06 10:40:36;;;;;;;;;;;;;;;16.45;100.00;100953.91;5073473;28;19932;-68
2021/10/06 10:43:06;;;;;;;;;;;;;;;15.92;100.00;100954.75;5072951;28;19931;-68
2021/10/06 10:45:36;;;;;;;;;;;;;;;15.82;100.00;100954.78;5073223;28;19924;-68
2021/10/06 10:48:03;;;;;;;;;;;;;;;15.64;100.00;100955.56;5072974;28;19997;-68
2021/10/06 10:50:36;;;;;;;;;;;;;;;15.57;100.00;100960.78;5073239;28;20385;-68
2021/10/06 10:53:03;;;;;;;;;;;;;;;15.50;100.00;100959.69;5073020;28;20031;-68
2021/10/06 10:55:44;;;;;;;;;;;;;;;15.37;100.00;100954.56;5072625;28;20299;-68
2021/10/06 10:58:28;;;;;;;;;;;;;;;15.32;100.00;100970.53;5072740;28;20015;-68
2021/10/06 11:00:54;;;;;;;;;;;;;;;15.26;100.00;100979.38;5072918;28;19947;-68
2021/10/06 11:03:20;;;;;;;;;;;;;;;15.29;100.00;100976.31;5054443;28;20302;-68
2021/10/06 11:05:47;;;;;;;;;;;;;;;15.37;100.00;100975.59;5072589;28;19935;-69
2021/10/06 11:08:23;;;;;;;;;;;;;;;15.38;100.00;100978.16;5072476;28;19925;-68
2021/10/06 11:11:19;;;;;;;;;;;;;;;16.06;100.00;100967.88;5072817;28;19978;-68
2021/10/06 11:13:48;;;;;;;;;;;;;;;17.16;100.00;100963.00;5072640;28;19931;-68
2021/10/06 11:16:14;;;;;;;;;;;;;;;17.95;100.00;100962.03;5071966;28;19928;-68
2021/10/06 11:18:43;;;;;;;;;;;;;;;18.26;100.00;100962.25;5072628;28;20026;-69
2021/10/06 11:21:10;;;;;;;;;;;;;;;18.49;100.00;100961.59;5071896;28;20007;-68
2021/10/06 11:23:40;;;;;;;;;;;;;;;18.55;100.00;100963.66;5072906;28;20027;-68
2021/10/06 11:26:07;;;;;;;;;;;;;;;18.35;100.00;100960.38;5072085;28;19928;-68
2021/10/06 11:28:36;;;;;;;;;;;;;;;17.93;100.00;100970.41;5071300;28;19925;-69
2021/10/06 11:31:04;;;;;;;;;;;;;;;17.34;100.00;100967.56;5072447;28;20027;-69
2021/10/06 11:33:30;;;;;;;;;;;;;;;17.22;100.00;100970.59;5072141;28;19924;-72
2021/10/06 11:36:05;;;;;;;;;;;;;;;17.06;100.00;100965.88;5072242;28;20311;-73
2021/10/06 11:38:32;;;;;;;;;;;;;;;17.46;100.00;100969.00;5072048;28;19931;-73
2021/10/06 11:40:58;;;;;;;;;;;;;;;17.33;100.00;100960.34;5072246;28;19931;-73
2021/10/06 11:43:24;;;;;;;;;;;;;;;17.53;100.00;100956.34;5071730;28;19924;-73
2021/10/06 11:45:51;;;;;;;;;;;;;;;18.06;100.00;100954.34;5071680;28;20087;-73
2021/10/06 11:48:22;;;;;;;;;;;;;;;18.18;100.00;100956.75;5071959;28;19928;-73
2021/10/06 11:50:48;;;;;;;;;;;;;;;18.75;100.00;100955.94;5071869;28;19935;-73
2021/10/06 11:53:14;;;;;;;;;;;;;;;18.58;100.00;100958.66;5071706;28;19929;-74
2021/10/06 11:55:47;;;;;;;;;;;;;;;18.27;100.00;100958.47;5053929;28;19930;-73
2021/10/06 11:58:31;;;;;;;;;;;;;;;18.14;100.00;100958.97;5071435;28;20019;-73
2021/10/06 12:01:02;;;;;;;;;;;;;;;18.01;100.00;100969.56;5071711;28;19955;-73
2021/10/06 12:03:35;;;;;;;;;;;;;;;17.84;100.00;100966.75;5053834;28;19930;-73
2021/10/06 12:06:01;;;;;;;;;;;;;;;17.85;100.00;100970.34;5071611;28;19924;-73
2021/10/06 12:08:28;;;;;;;;;;;;;;;17.65;100.00;100972.50;5071726;28;20463;-68
2021/10/06 12:10:54;;;;;;;;;;;;;;;17.19;100.00;100967.31;5071492;28;19928;-68
2021/10/06 12:13:30;;;;;;;;;;;;;;;17.11;100.00;100980.97;5071623;28;19925;-68
2021/10/06 12:15:56;;;;;;;;;;;;;;;17.09;100.00;100972.94;5053160;28;20019;-68
2021/10/06 12:18:23;;;;;;;;;;;;;;;17.11;100.00;100986.47;5071440;28;20372;-68
2021/10/06 12:20:50;;;;;;;;;;;;;;;17.29;100.00;100984.53;5071268;28;20079;-68
2021/10/06 12:23:22;;;;;;;;;;;;;;;17.27;100.00;100989.31;5071118;28;20311;-68
2021/10/06 12:25:52;;;;;;;;;;;;;;;17.43;100.00;100991.28;5070941;28;19928;-68
2021/10/06 12:28:21;;;;;;;;;;;;;;;17.39;100.00;100988.00;5071582;28;19931;-68